Camana, Peru
Current Conditions -  °F | °C
As of 3:00 PM on Wednesday 28 Jan 2015 (Local Time) from SPQU Reporting Station
Broken Clouds Broken Clouds  
Wind Chill: 63°   Ceiling: 3000
Heat Index: 63°   Visibility: 6mi
Dew Point: 48°   Wind: 10mph
Humidity: 59%   Direction: 250°WSW
Pressure: 30.24"   Gusts: NA
Location:  16.62°S, 72.72°W
Report Text: SPQU 282000Z 25009KT 9999 BKN030 SCT040 17/09 Q1024 NOSIG RMKPP000
Loading
Personal Weather Stations






























Interactive Weather Map New forecast layout! Learn more

10-Day Weather Forecast

Advertisements
Track Severe Weather on mobile